sensor_id;sensor_type;location;lat;lon;timestamp;P1;durP1;ratioP1;P2;durP2;ratioP2
55362;SDS011;41244;49.242;9.060;2022-08-18T00:01:07;7.53;;;6.43;;
55362;SDS011;41244;49.242;9.060;2022-08-18T00:03:35;6.97;;;6.28;;
55362;SDS011;41244;49.242;9.060;2022-08-18T00:06:01;6.60;;;6.00;;
55362;SDS011;41244;49.242;9.060;2022-08-18T00:08:27;6.75;;;6.15;;
55362;SDS011;41244;49.242;9.060;2022-08-18T00:10:53;6.53;;;6.03;;
55362;SDS011;41244;49.242;9.060;2022-08-18T00:13:20;7.18;;;6.47;;
55362;SDS011;41244;49.242;9.060;2022-08-18T00:15:45;7.90;;;7.03;;
55362;SDS011;41244;49.242;9.060;2022-08-18T00:18:11;7.93;;;7.13;;
55362;SDS011;41244;49.242;9.060;2022-08-18T00:20:38;8.77;;;7.95;;
55362;SDS011;41244;49.242;9.060;2022-08-18T00:23:05;10.65;;;8.05;;
55362;SDS011;41244;49.242;9.060;2022-08-18T00:25:31;9.43;;;7.90;;
55362;SDS011;41244;49.242;9.060;2022-08-18T00:27:57;10.15;;;7.97;;
55362;SDS011;41244;49.242;9.060;2022-08-18T00:30:23;9.90;;;7.20;;
55362;SDS011;41244;49.242;9.060;2022-08-18T00:32:50;8.23;;;7.47;;
55362;SDS011;41244;49.242;9.060;2022-08-18T00:37:50;10.15;;;6.65;;
55362;SDS011;41244;49.242;9.060;2022-08-18T00:40:19;8.30;;;6.32;;
55362;SDS011;41244;49.242;9.060;2022-08-18T00:42:53;7.55;;;6.57;;
55362;SDS011;41244;49.242;9.060;2022-08-18T00:45:33;8.30;;;6.88;;
55362;SDS011;41244;49.242;9.060;2022-08-18T00:48:05;7.15;;;6.55;;
55362;SDS011;41244;49.242;9.060;2022-08-18T00:53:34;7.07;;;6.45;;
55362;SDS011;41244;49.242;9.060;2022-08-18T00:56:14;7.22;;;6.53;;
55362;SDS011;41244;49.242;9.060;2022-08-18T00:58:48;7.35;;;6.68;;
55362;SDS011;41244;49.242;9.060;2022-08-18T01:01:24;7.25;;;6.55;;
55362;SDS011;41244;49.242;9.060;2022-08-18T01:03:55;7.45;;;6.85;;
55362;SDS011;41244;49.242;9.060;2022-08-18T01:09:36;7.60;;;6.80;;
55362;SDS011;41244;49.242;9.060;2022-08-18T01:12:02;7.88;;;7.13;;
55362;SDS011;41244;49.242;9.060;2022-08-18T01:14:28;6.93;;;6.22;;
55362;SDS011;41244;49.242;9.060;2022-08-18T01:16:54;7.20;;;6.50;;
55362;SDS011;41244;49.242;9.060;2022-08-18T01:19:39;7.75;;;7.05;;
55362;SDS011;41244;49.242;9.060;2022-08-18T01:25:17;8.40;;;7.60;;
55362;SDS011;41244;49.242;9.060;2022-08-18T01:28:04;7.50;;;6.70;;
55362;SDS011;41244;49.242;9.060;2022-08-18T01:30:31;9.73;;;7.15;;
55362;SDS011;41244;49.242;9.060;2022-08-18T01:33:09;6.85;;;6.25;;
55362;SDS011;41244;49.242;9.060;2022-08-18T01:35:36;7.07;;;6.47;;
55362;SDS011;41244;49.242;9.060;2022-08-18T01:38:02;7.50;;;6.80;;
55362;SDS011;41244;49.242;9.060;2022-08-18T01:40:28;7.25;;;6.55;;
55362;SDS011;41244;49.242;9.060;2022-08-18T01:42:54;7.43;;;6.78;;
55362;SDS011;41244;49.242;9.060;2022-08-18T01:45:20;7.13;;;6.30;;
55362;SDS011;41244;49.242;9.060;2022-08-18T01:47:46;7.57;;;6.90;;
55362;SDS011;41244;49.242;9.060;2022-08-18T01:50:13;7.38;;;6.20;;
55362;SDS011;41244;49.242;9.060;2022-08-18T01:52:39;7.45;;;6.70;;
55362;SDS011;41244;49.242;9.060;2022-08-18T01:55:06;7.85;;;7.05;;
55362;SDS011;41244;49.242;9.060;2022-08-18T01:57:32;8.43;;;7.30;;
55362;SDS011;41244;49.242;9.060;2022-08-18T02:00:07;8.00;;;7.30;;
55362;SDS011;41244;49.242;9.060;2022-08-18T02:02:35;9.80;;;7.05;;
55362;SDS011;41244;49.242;9.060;2022-08-18T02:05:02;7.50;;;6.90;;
55362;SDS011;41244;49.242;9.060;2022-08-18T02:07:35;7.25;;;6.63;;
55362;SDS011;41244;49.242;9.060;2022-08-18T02:10:01;7.97;;;7.28;;
55362;SDS011;41244;49.242;9.060;2022-08-18T02:12:34;7.65;;;6.95;;
55362;SDS011;41244;49.242;9.060;2022-08-18T02:15:01;8.27;;;7.47;;
55362;SDS011;41244;49.242;9.060;2022-08-18T02:17:29;8.00;;;7.20;;
55362;SDS011;41244;49.242;9.060;2022-08-18T02:20:02;7.88;;;7.10;;
55362;SDS011;41244;49.242;9.060;2022-08-18T02:22:30;7.53;;;6.93;;
55362;SDS011;41244;49.242;9.060;2022-08-18T02:24:56;7.65;;;6.97;;
55362;SDS011;41244;49.242;9.060;2022-08-18T02:27:21;8.13;;;7.35;;
55362;SDS011;41244;49.242;9.060;2022-08-18T02:29:47;10.02;;;6.78;;
55362;SDS011;41244;49.242;9.060;2022-08-18T02:32:13;7.88;;;7.18;;
55362;SDS011;41244;49.242;9.060;2022-08-18T02:34:39;7.88;;;7.18;;
55362;SDS011;41244;49.242;9.060;2022-08-18T02:37:06;7.55;;;6.78;;
55362;SDS011;41244;49.242;9.060;2022-08-18T02:39:34;8.52;;;7.82;;
55362;SDS011;41244;49.242;9.060;2022-08-18T02:42:02;8.60;;;7.80;;
55362;SDS011;41244;49.242;9.060;2022-08-18T02:44:29;8.20;;;7.43;;
55362;SDS011;41244;49.242;9.060;2022-08-18T02:46:56;8.32;;;7.53;;
55362;SDS011;41244;49.242;9.060;2022-08-18T02:49:22;8.38;;;7.50;;
55362;SDS011;41244;49.242;9.060;2022-08-18T02:51:49;8.68;;;7.63;;
55362;SDS011;41244;49.242;9.060;2022-08-18T02:54:17;8.23;;;7.43;;
55362;SDS011;41244;49.242;9.060;2022-08-18T02:56:47;11.18;;;7.68;;
55362;SDS011;41244;49.242;9.060;2022-08-18T02:59:16;8.68;;;7.03;;
55362;SDS011;41244;49.242;9.060;2022-08-18T03:01:46;7.95;;;7.22;;
55362;SDS011;41244;49.242;9.060;2022-08-18T03:04:16;8.02;;;7.30;;
55362;SDS011;41244;49.242;9.060;2022-08-18T03:06:45;8.00;;;7.30;;
55362;SDS011;41244;49.242;9.060;2022-08-18T03:09:12;8.15;;;7.43;;
55362;SDS011;41244;49.242;9.060;2022-08-18T03:11:40;7.82;;;7.07;;
55362;SDS011;41244;49.242;9.060;2022-08-18T03:14:07;7.53;;;6.68;;
55362;SDS011;41244;49.242;9.060;2022-08-18T03:16:33;9.57;;;7.15;;
55362;SDS011;41244;49.242;9.060;2022-08-18T03:19:02;8.02;;;7.22;;
55362;SDS011;41244;49.242;9.060;2022-08-18T03:21:29;7.47;;;6.78;;
55362;SDS011;41244;49.242;9.060;2022-08-18T03:23:58;7.78;;;7.00;;
55362;SDS011;41244;49.242;9.060;2022-08-18T03:26:25;7.45;;;6.72;;
55362;SDS011;41244;49.242;9.060;2022-08-18T03:28:52;9.05;;;7.20;;
55362;SDS011;41244;49.242;9.060;2022-08-18T03:31:19;7.80;;;7.10;;
55362;SDS011;41244;49.242;9.060;2022-08-18T03:33:48;7.72;;;6.95;;
55362;SDS011;41244;49.242;9.060;2022-08-18T03:36:17;8.05;;;7.28;;
55362;SDS011;41244;49.242;9.060;2022-08-18T03:38:46;6.72;;;6.13;;
55362;SDS011;41244;49.242;9.060;2022-08-18T03:41:14;6.68;;;6.07;;
55362;SDS011;41244;49.242;9.060;2022-08-18T03:43:41;6.50;;;5.80;;
55362;SDS011;41244;49.242;9.060;2022-08-18T03:46:08;6.45;;;5.82;;
55362;SDS011;41244;49.242;9.060;2022-08-18T03:48:38;6.38;;;5.78;;
55362;SDS011;41244;49.242;9.060;2022-08-18T03:51:12;6.00;;;5.50;;
55362;SDS011;41244;49.242;9.060;2022-08-18T03:53:46;6.85;;;6.25;;
55362;SDS011;41244;49.242;9.060;2022-08-18T03:56:17;6.95;;;6.35;;
55362;SDS011;41244;49.242;9.060;2022-08-18T03:58:49;6.32;;;5.80;;
55362;SDS011;41244;49.242;9.060;2022-08-18T04:01:20;6.68;;;5.82;;
55362;SDS011;41244;49.242;9.060;2022-08-18T04:03:50;6.90;;;6.20;;
55362;SDS011;41244;49.242;9.060;2022-08-18T04:06:21;6.95;;;6.35;;
55362;SDS011;41244;49.242;9.060;2022-08-18T04:08:54;6.53;;;5.93;;
55362;SDS011;41244;49.242;9.060;2022-08-18T04:11:22;6.47;;;5.65;;
55362;SDS011;41244;49.242;9.060;2022-08-18T04:13:48;6.57;;;6.00;;
55362;SDS011;41244;49.242;9.060;2022-08-18T04:16:15;9.13;;;6.50;;
55362;SDS011;41244;49.242;9.060;2022-08-18T04:18:41;6.70;;;5.97;;
55362;SDS011;41244;49.242;9.060;2022-08-18T04:21:08;6.90;;;6.20;;
55362;SDS011;41244;49.242;9.060;2022-08-18T04:23:37;7.03;;;6.43;;
55362;SDS011;41244;49.242;9.060;2022-08-18T04:26:05;6.60;;;6.00;;
55362;SDS011;41244;49.242;9.060;2022-08-18T04:28:33;7.47;;;6.18;;
55362;SDS011;41244;49.242;9.060;2022-08-18T04:31:04;7.40;;;6.70;;
55362;SDS011;41244;49.242;9.060;2022-08-18T04:33:36;6.32;;;5.78;;
55362;SDS011;41244;49.242;9.060;2022-08-18T04:36:09;8.43;;;6.13;;
55362;SDS011;41244;49.242;9.060;2022-08-18T04:38:38;6.68;;;5.82;;
55362;SDS011;41244;49.242;9.060;2022-08-18T04:41:09;5.90;;;5.40;;
55362;SDS011;41244;49.242;9.060;2022-08-18T04:43:36;10.02;;;9.00;;
55362;SDS011;41244;49.242;9.060;2022-08-18T04:46:02;6.55;;;5.95;;
55362;SDS011;41244;49.242;9.060;2022-08-18T04:48:30;6.72;;;6.00;;
55362;SDS011;41244;49.242;9.060;2022-08-18T04:51:02;6.22;;;5.63;;
55362;SDS011;41244;49.242;9.060;2022-08-18T04:53:48;6.00;;;5.45;;
55362;SDS011;41244;49.242;9.060;2022-08-18T04:56:30;6.43;;;5.80;;
55362;SDS011;41244;49.242;9.060;2022-08-18T04:59:04;6.40;;;5.80;;
55362;SDS011;41244;49.242;9.060;2022-08-18T05:04:09;5.80;;;5.30;;
55362;SDS011;41244;49.242;9.060;2022-08-18T05:06:37;5.88;;;5.38;;
55362;SDS011;41244;49.242;9.060;2022-08-18T05:09:07;5.93;;;5.43;;
55362;SDS011;41244;49.242;9.060;2022-08-18T05:11:35;7.07;;;5.93;;
55362;SDS011;41244;49.242;9.060;2022-08-18T05:14:02;6.05;;;5.45;;
55362;SDS011;41244;49.242;9.060;2022-08-18T05:16:31;7.18;;;6.40;;
55362;SDS011;41244;49.242;9.060;2022-08-18T05:19:07;6.30;;;5.65;;
55362;SDS011;41244;49.242;9.060;2022-08-18T05:21:36;6.40;;;5.80;;
55362;SDS011;41244;49.242;9.060;2022-08-18T05:24:05;6.18;;;5.65;;
55362;SDS011;41244;49.242;9.060;2022-08-18T05:26:33;6.90;;;5.93;;
55362;SDS011;41244;49.242;9.060;2022-08-18T05:29:00;7.93;;;5.65;;
55362;SDS011;41244;49.242;9.060;2022-08-18T05:31:26;6.53;;;5.85;;
55362;SDS011;41244;49.242;9.060;2022-08-18T05:33:53;6.72;;;6.03;;
55362;SDS011;41244;49.242;9.060;2022-08-18T05:41:36;7.20;;;6.50;;
55362;SDS011;41244;49.242;9.060;2022-08-18T05:44:06;6.45;;;5.85;;
55362;SDS011;41244;49.242;9.060;2022-08-18T05:46:39;6.60;;;6.00;;
55362;SDS011;41244;49.242;9.060;2022-08-18T05:49:23;6.60;;;5.50;;
55362;SDS011;41244;49.242;9.060;2022-08-18T05:51:52;6.53;;;5.93;;
55362;SDS011;41244;49.242;9.060;2022-08-18T05:54:26;5.93;;;5.40;;
55362;SDS011;41244;49.242;9.060;2022-08-18T05:57:21;11.23;;;10.00;;
55362;SDS011;41244;49.242;9.060;2022-08-18T05:59:49;10.30;;;9.30;;
55362;SDS011;41244;49.242;9.060;2022-08-18T06:02:17;7.28;;;6.25;;
55362;SDS011;41244;49.242;9.060;2022-08-18T06:05:05;6.55;;;5.50;;
55362;SDS011;41244;49.242;9.060;2022-08-18T06:07:39;6.90;;;6.20;;
55362;SDS011;41244;49.242;9.060;2022-08-18T06:10:13;6.63;;;5.93;;
55362;SDS011;41244;49.242;9.060;2022-08-18T06:12:44;7.35;;;6.07;;
55362;SDS011;41244;49.242;9.060;2022-08-18T06:26:48;6.35;;;5.78;;
55362;SDS011;41244;49.242;9.060;2022-08-18T06:35:34;6.93;;;6.22;;
55362;SDS011;41244;49.242;9.060;2022-08-18T06:43:58;8.40;;;6.40;;
55362;SDS011;41244;49.242;9.060;2022-08-18T06:46:31;9.63;;;6.65;;
55362;SDS011;41244;49.242;9.060;2022-08-18T06:49:17;8.05;;;7.35;;
55362;SDS011;41244;49.242;9.060;2022-08-18T06:54:54;9.18;;;6.70;;
55362;SDS011;41244;49.242;9.060;2022-08-18T07:00:00;8.73;;;6.93;;
55362;SDS011;41244;49.242;9.060;2022-08-18T07:02:39;8.43;;;7.53;;
55362;SDS011;41244;49.242;9.060;2022-08-18T07:08:04;7.53;;;6.82;;
55362;SDS011;41244;49.242;9.060;2022-08-18T07:10:38;7.93;;;7.13;;
55362;SDS011;41244;49.242;9.060;2022-08-18T07:15:37;8.68;;;6.95;;
55362;SDS011;41244;49.242;9.060;2022-08-18T07:18:04;8.57;;;6.82;;
55362;SDS011;41244;49.242;9.060;2022-08-18T07:20:46;11.43;;;8.60;;
55362;SDS011;41244;49.242;9.060;2022-08-18T07:23:30;8.90;;;7.40;;
55362;SDS011;41244;49.242;9.060;2022-08-18T07:28:43;7.03;;;6.40;;
55362;SDS011;41244;49.242;9.060;2022-08-18T07:34:14;7.80;;;7.00;;
55362;SDS011;41244;49.242;9.060;2022-08-18T07:36:47;7.15;;;6.55;;
55362;SDS011;41244;49.242;9.060;2022-08-18T07:39:37;7.45;;;6.72;;
55362;SDS011;41244;49.242;9.060;2022-08-18T07:45:13;8.30;;;7.45;;
55362;SDS011;41244;49.242;9.060;2022-08-18T07:48:16;9.27;;;7.82;;
55362;SDS011;41244;49.242;9.060;2022-08-18T07:53:25;9.45;;;7.25;;
55362;SDS011;41244;49.242;9.060;2022-08-18T07:56:13;7.45;;;6.75;;
55362;SDS011;41244;49.242;9.060;2022-08-18T08:02:49;10.25;;;7.50;;
55362;SDS011;41244;49.242;9.060;2022-08-18T08:08:30;9.90;;;7.57;;
55362;SDS011;41244;49.242;9.060;2022-08-18T08:17:09;8.27;;;7.53;;
55362;SDS011;41244;49.242;9.060;2022-08-18T08:30:49;12.02;;;7.88;;
55362;SDS011;41244;49.242;9.060;2022-08-18T08:36:09;10.80;;;7.57;;
55362;SDS011;41244;49.242;9.060;2022-08-18T08:38:48;8.85;;;7.95;;
55362;SDS011;41244;49.242;9.060;2022-08-18T08:47:59;8.80;;;8.00;;
55362;SDS011;41244;49.242;9.060;2022-08-18T08:50:34;11.50;;;7.90;;
55362;SDS011;41244;49.242;9.060;2022-08-18T08:53:28;9.15;;;8.25;;
55362;SDS011;41244;49.242;9.060;2022-08-18T08:56:05;34.40;;;26.63;;
55362;SDS011;41244;49.242;9.060;2022-08-18T08:58:39;10.25;;;8.90;;
55362;SDS011;41244;49.242;9.060;2022-08-18T09:04:00;10.50;;;8.60;;
55362;SDS011;41244;49.242;9.060;2022-08-18T09:06:50;8.20;;;7.35;;
55362;SDS011;41244;49.242;9.060;2022-08-18T09:24:30;13.90;;;9.02;;
55362;SDS011;41244;49.242;9.060;2022-08-18T09:29:49;10.60;;;9.10;;
55362;SDS011;41244;49.242;9.060;2022-08-18T09:37:51;10.88;;;9.77;;
55362;SDS011;41244;49.242;9.060;2022-08-18T09:40:54;10.68;;;9.70;;
55362;SDS011;41244;49.242;9.060;2022-08-18T09:43:57;9.80;;;8.88;;
55362;SDS011;41244;49.242;9.060;2022-08-18T09:51:53;11.80;;;10.70;;
55362;SDS011;41244;49.242;9.060;2022-08-18T09:54:25;11.65;;;10.52;;
55362;SDS011;41244;49.242;9.060;2022-08-18T09:56:57;12.02;;;10.82;;
55362;SDS011;41244;49.242;9.060;2022-08-18T10:02:12;11.85;;;10.65;;
55362;SDS011;41244;49.242;9.060;2022-08-18T10:25:13;15.00;;;11.10;;
55362;SDS011;41244;49.242;9.060;2022-08-18T10:28:50;12.35;;;11.10;;
55362;SDS011;41244;49.242;9.060;2022-08-18T10:31:14;13.18;;;11.75;;
55362;SDS011;41244;49.242;9.060;2022-08-18T10:39:23;13.80;;;12.50;;
55362;SDS011;41244;49.242;9.060;2022-08-18T10:45:19;15.10;;;13.77;;
55362;SDS011;41244;49.242;9.060;2022-08-18T10:50:50;14.52;;;13.13;;
55362;SDS011;41244;49.242;9.060;2022-08-18T10:53:50;16.08;;;13.25;;
55362;SDS011;41244;49.242;9.060;2022-08-18T11:00:05;12.90;;;11.60;;
55362;SDS011;41244;49.242;9.060;2022-08-18T11:05:37;12.68;;;11.50;;
55362;SDS011;41244;49.242;9.060;2022-08-18T11:08:07;12.13;;;10.98;;
55362;SDS011;41244;49.242;9.060;2022-08-18T11:10:45;13.70;;;12.27;;
55362;SDS011;41244;49.242;9.060;2022-08-18T11:16:21;11.48;;;10.35;;
55362;SDS011;41244;49.242;9.060;2022-08-18T11:19:21;12.63;;;11.50;;
55362;SDS011;41244;49.242;9.060;2022-08-18T11:21:47;11.50;;;10.40;;
55362;SDS011;41244;49.242;9.060;2022-08-18T11:29:38;11.25;;;9.90;;
55362;SDS011;41244;49.242;9.060;2022-08-18T11:42:46;9.60;;;8.68;;
55362;SDS011;41244;49.242;9.060;2022-08-18T11:45:32;8.48;;;7.65;;
55362;SDS011;41244;49.242;9.060;2022-08-18T11:53:38;8.35;;;7.55;;
55362;SDS011;41244;49.242;9.060;2022-08-18T12:03:58;8.43;;;7.63;;
55362;SDS011;41244;49.242;9.060;2022-08-18T12:09:40;9.05;;;8.23;;
55362;SDS011;41244;49.242;9.060;2022-08-18T12:12:45;9.20;;;8.40;;
55362;SDS011;41244;49.242;9.060;2022-08-18T12:17:41;9.48;;;8.65;;
55362;SDS011;41244;49.242;9.060;2022-08-18T12:20:09;8.50;;;7.72;;
55362;SDS011;41244;49.242;9.060;2022-08-18T12:22:38;9.07;;;8.27;;
55362;SDS011;41244;49.242;9.060;2022-08-18T12:25:14;9.70;;;8.90;;
55362;SDS011;41244;49.242;9.060;2022-08-18T12:27:45;8.45;;;7.75;;
55362;SDS011;41244;49.242;9.060;2022-08-18T12:30:11;8.23;;;7.53;;
55362;SDS011;41244;49.242;9.060;2022-08-18T12:32:37;8.38;;;7.68;;
55362;SDS011;41244;49.242;9.060;2022-08-18T12:35:04;9.85;;;8.07;;
55362;SDS011;41244;49.242;9.060;2022-08-18T12:37:32;8.57;;;7.70;;
55362;SDS011;41244;49.242;9.060;2022-08-18T12:40:02;8.40;;;7.63;;
55362;SDS011;41244;49.242;9.060;2022-08-18T12:42:29;8.52;;;7.70;;
55362;SDS011;41244;49.242;9.060;2022-08-18T12:44:55;7.93;;;7.25;;
55362;SDS011;41244;49.242;9.060;2022-08-18T12:47:21;8.88;;;8.10;;
55362;SDS011;41244;49.242;9.060;2022-08-18T12:49:53;10.05;;;7.00;;
55362;SDS011;41244;49.242;9.060;2022-08-18T12:52:19;7.88;;;6.40;;
55362;SDS011;41244;49.242;9.060;2022-08-18T12:54:46;7.05;;;6.35;;
55362;SDS011;41244;49.242;9.060;2022-08-18T12:57:16;7.15;;;6.45;;
55362;SDS011;41244;49.242;9.060;2022-08-18T12:59:47;7.20;;;6.50;;
55362;SDS011;41244;49.242;9.060;2022-08-18T13:02:14;8.90;;;6.28;;
55362;SDS011;41244;49.242;9.060;2022-08-18T13:04:41;6.85;;;6.25;;
55362;SDS011;41244;49.242;9.060;2022-08-18T13:07:11;6.32;;;5.72;;
55362;SDS011;41244;49.242;9.060;2022-08-18T13:09:39;6.70;;;6.10;;
55362;SDS011;41244;49.242;9.060;2022-08-18T13:12:09;6.75;;;6.15;;
55362;SDS011;41244;49.242;9.060;2022-08-18T13:14:36;7.45;;;5.63;;
55362;SDS011;41244;49.242;9.060;2022-08-18T13:17:25;8.25;;;5.80;;
55362;SDS011;41244;49.242;9.060;2022-08-18T13:19:51;6.57;;;5.90;;
55362;SDS011;41244;49.242;9.060;2022-08-18T13:22:17;6.20;;;5.70;;
55362;SDS011;41244;49.242;9.060;2022-08-18T13:24:42;6.32;;;5.72;;
55362;SDS011;41244;49.242;9.060;2022-08-18T13:27:08;8.63;;;5.63;;
55362;SDS011;41244;49.242;9.060;2022-08-18T13:29:35;6.75;;;6.10;;
55362;SDS011;41244;49.242;9.060;2022-08-18T13:32:04;6.93;;;6.15;;
55362;SDS011;41244;49.242;9.060;2022-08-18T13:34:33;6.95;;;6.30;;
55362;SDS011;41244;49.242;9.060;2022-08-18T13:37:07;6.45;;;5.85;;
55362;SDS011;41244;49.242;9.060;2022-08-18T13:39:42;6.47;;;5.53;;
55362;SDS011;41244;49.242;9.060;2022-08-18T13:42:09;6.40;;;5.80;;
55362;SDS011;41244;49.242;9.060;2022-08-18T13:44:35;6.20;;;5.70;;
55362;SDS011;41244;49.242;9.060;2022-08-18T13:47:02;6.15;;;5.60;;
55362;SDS011;41244;49.242;9.060;2022-08-18T13:49:28;6.30;;;5.80;;
55362;SDS011;41244;49.242;9.060;2022-08-18T13:51:54;7.47;;;5.82;;
55362;SDS011;41244;49.242;9.060;2022-08-18T13:54:30;6.25;;;5.75;;
55362;SDS011;41244;49.242;9.060;2022-08-18T13:57:00;6.50;;;5.90;;
55362;SDS011;41244;49.242;9.060;2022-08-18T13:59:26;6.38;;;5.78;;
55362;SDS011;41244;49.242;9.060;2022-08-18T14:01:55;6.28;;;5.70;;
55362;SDS011;41244;49.242;9.060;2022-08-18T14:04:22;6.90;;;6.10;;
55362;SDS011;41244;49.242;9.060;2022-08-18T14:06:49;6.95;;;6.03;;
55362;SDS011;41244;49.242;9.060;2022-08-18T14:09:16;6.45;;;5.85;;
55362;SDS011;41244;49.242;9.060;2022-08-18T14:11:47;6.63;;;6.03;;
55362;SDS011;41244;49.242;9.060;2022-08-18T14:14:16;6.88;;;6.28;;
55362;SDS011;41244;49.242;9.060;2022-08-18T14:16:43;6.97;;;6.28;;
55362;SDS011;41244;49.242;9.060;2022-08-18T14:19:09;7.10;;;6.40;;
55362;SDS011;41244;49.242;9.060;2022-08-18T14:21:54;8.07;;;7.32;;
55362;SDS011;41244;49.242;9.060;2022-08-18T14:24:39;7.70;;;6.90;;
55362;SDS011;41244;49.242;9.060;2022-08-18T14:27:35;8.27;;;6.57;;
55362;SDS011;41244;49.242;9.060;2022-08-18T14:30:11;6.88;;;6.25;;
55362;SDS011;41244;49.242;9.060;2022-08-18T14:32:39;9.93;;;6.57;;
55362;SDS011;41244;49.242;9.060;2022-08-18T14:35:06;8.43;;;6.63;;
55362;SDS011;41244;49.242;9.060;2022-08-18T14:37:33;7.90;;;7.07;;
55362;SDS011;41244;49.242;9.060;2022-08-18T14:40:00;6.88;;;6.18;;
55362;SDS011;41244;49.242;9.060;2022-08-18T14:42:26;8.15;;;6.90;;
55362;SDS011;41244;49.242;9.060;2022-08-18T14:44:52;7.93;;;7.18;;
55362;SDS011;41244;49.242;9.060;2022-08-18T14:47:19;11.93;;;7.60;;
55362;SDS011;41244;49.242;9.060;2022-08-18T14:49:54;11.02;;;7.30;;
55362;SDS011;41244;49.242;9.060;2022-08-18T14:52:22;14.23;;;10.60;;
55362;SDS011;41244;49.242;9.060;2022-08-18T14:54:48;7.15;;;6.45;;
55362;SDS011;41244;49.242;9.060;2022-08-18T14:57:18;8.77;;;7.20;;
55362;SDS011;41244;49.242;9.060;2022-08-18T14:59:44;7.35;;;6.60;;
55362;SDS011;41244;49.242;9.060;2022-08-18T15:02:10;7.25;;;6.55;;
55362;SDS011;41244;49.242;9.060;2022-08-18T15:04:40;6.95;;;6.35;;
55362;SDS011;41244;49.242;9.060;2022-08-18T15:07:07;7.45;;;6.75;;
55362;SDS011;41244;49.242;9.060;2022-08-18T15:09:32;7.30;;;6.50;;
55362;SDS011;41244;49.242;9.060;2022-08-18T15:12:01;7.53;;;6.32;;
55362;SDS011;41244;49.242;9.060;2022-08-18T15:14:29;8.02;;;6.65;;
55362;SDS011;41244;49.242;9.060;2022-08-18T15:16:56;7.35;;;6.75;;
55362;SDS011;41244;49.242;9.060;2022-08-18T15:19:26;7.30;;;6.55;;
55362;SDS011;41244;49.242;9.060;2022-08-18T15:21:52;7.38;;;6.55;;
55362;SDS011;41244;49.242;9.060;2022-08-18T15:24:40;6.95;;;6.30;;
55362;SDS011;41244;49.242;9.060;2022-08-18T15:27:35;7.65;;;6.93;;
55362;SDS011;41244;49.242;9.060;2022-08-18T15:30:04;8.07;;;7.38;;
55362;SDS011;41244;49.242;9.060;2022-08-18T15:32:35;8.05;;;7.25;;
55362;SDS011;41244;49.242;9.060;2022-08-18T15:35:02;8.30;;;7.50;;
55362;SDS011;41244;49.242;9.060;2022-08-18T15:37:32;14.32;;;12.88;;
55362;SDS011;41244;49.242;9.060;2022-08-18T15:40:08;8.02;;;7.35;;
55362;SDS011;41244;49.242;9.060;2022-08-18T15:42:48;7.70;;;7.00;;
55362;SDS011;41244;49.242;9.060;2022-08-18T15:47:59;9.27;;;8.40;;
55362;SDS011;41244;49.242;9.060;2022-08-18T15:50:25;9.68;;;8.20;;
55362;SDS011;41244;49.242;9.060;2022-08-18T15:53:00;9.55;;;8.70;;
55362;SDS011;41244;49.242;9.060;2022-08-18T15:55:28;9.45;;;8.45;;
55362;SDS011;41244;49.242;9.060;2022-08-18T15:57:57;11.40;;;10.27;;
55362;SDS011;41244;49.242;9.060;2022-08-18T16:00:27;10.55;;;9.55;;
55362;SDS011;41244;49.242;9.060;2022-08-18T16:03:03;11.55;;;10.05;;
55362;SDS011;41244;49.242;9.060;2022-08-18T16:05:37;11.75;;;10.75;;
55362;SDS011;41244;49.242;9.060;2022-08-18T16:08:06;11.95;;;10.95;;
55362;SDS011;41244;49.242;9.060;2022-08-18T16:10:34;12.10;;;11.02;;
55362;SDS011;41244;49.242;9.060;2022-08-18T16:13:09;11.95;;;10.93;;
55362;SDS011;41244;49.242;9.060;2022-08-18T16:15:36;12.68;;;11.63;;
55362;SDS011;41244;49.242;9.060;2022-08-18T16:18:04;14.38;;;12.90;;
55362;SDS011;41244;49.242;9.060;2022-08-18T16:20:32;13.85;;;12.43;;
55362;SDS011;41244;49.242;9.060;2022-08-18T16:22:59;13.70;;;12.38;;
55362;SDS011;41244;49.242;9.060;2022-08-18T16:25:25;13.15;;;11.95;;
55362;SDS011;41244;49.242;9.060;2022-08-18T16:27:51;13.18;;;11.70;;
55362;SDS011;41244;49.242;9.060;2022-08-18T16:30:21;14.25;;;12.55;;
55362;SDS011;41244;49.242;9.060;2022-08-18T16:32:49;12.98;;;11.88;;
55362;SDS011;41244;49.242;9.060;2022-08-18T16:35:16;14.25;;;11.55;;
55362;SDS011;41244;49.242;9.060;2022-08-18T16:37:43;13.90;;;11.77;;
55362;SDS011;41244;49.242;9.060;2022-08-18T16:40:11;12.10;;;11.10;;
55362;SDS011;41244;49.242;9.060;2022-08-18T16:42:42;12.00;;;10.93;;
55362;SDS011;41244;49.242;9.060;2022-08-18T16:45:08;17.27;;;15.52;;
55362;SDS011;41244;49.242;9.060;2022-08-18T16:47:38;12.40;;;11.30;;
55362;SDS011;41244;49.242;9.060;2022-08-18T16:50:09;14.73;;;12.60;;
55362;SDS011;41244;49.242;9.060;2022-08-18T16:52:38;14.00;;;12.10;;
55362;SDS011;41244;49.242;9.060;2022-08-18T16:55:06;13.20;;;11.85;;
55362;SDS011;41244;49.242;9.060;2022-08-18T16:57:38;11.88;;;10.88;;
55362;SDS011;41244;49.242;9.060;2022-08-18T17:00:25;11.95;;;10.95;;
55362;SDS011;41244;49.242;9.060;2022-08-18T17:03:14;13.50;;;12.20;;
55362;SDS011;41244;49.242;9.060;2022-08-18T17:06:16;12.50;;;11.50;;
55362;SDS011;41244;49.242;9.060;2022-08-18T17:08:43;13.02;;;11.93;;
55362;SDS011;41244;49.242;9.060;2022-08-18T17:11:14;13.68;;;12.38;;
55362;SDS011;41244;49.242;9.060;2022-08-18T17:13:46;13.18;;;11.88;;
55362;SDS011;41244;49.242;9.060;2022-08-18T17:16:14;12.27;;;11.27;;
55362;SDS011;41244;49.242;9.060;2022-08-18T17:18:44;12.93;;;11.48;;
55362;SDS011;41244;49.242;9.060;2022-08-18T17:21:12;13.48;;;12.18;;
55362;SDS011;41244;49.242;9.060;2022-08-18T17:23:43;13.90;;;12.73;;
55362;SDS011;41244;49.242;9.060;2022-08-18T17:29:06;13.20;;;12.00;;
55362;SDS011;41244;49.242;9.060;2022-08-18T17:32:00;14.60;;;13.27;;
55362;SDS011;41244;49.242;9.060;2022-08-18T17:34:34;15.30;;;13.70;;
55362;SDS011;41244;49.242;9.060;2022-08-18T17:37:09;15.32;;;13.93;;
55362;SDS011;41244;49.242;9.060;2022-08-18T17:39:56;15.75;;;14.15;;
55362;SDS011;41244;49.242;9.060;2022-08-18T17:42:37;16.33;;;14.73;;
55362;SDS011;41244;49.242;9.060;2022-08-18T17:45:08;16.40;;;14.80;;
55362;SDS011;41244;49.242;9.060;2022-08-18T17:48:00;16.13;;;14.63;;
55362;SDS011;41244;49.242;9.060;2022-08-18T17:50:33;17.95;;;16.35;;
55362;SDS011;41244;49.242;9.060;2022-08-18T17:53:35;18.15;;;16.45;;
55362;SDS011;41244;49.242;9.060;2022-08-18T17:56:20;19.25;;;17.27;;
55362;SDS011;41244;49.242;9.060;2022-08-18T17:59:10;16.15;;;14.68;;
55362;SDS011;41244;49.242;9.060;2022-08-18T18:01:39;16.42;;;14.88;;
55362;SDS011;41244;49.242;9.060;2022-08-18T18:04:07;18.27;;;16.38;;
55362;SDS011;41244;49.242;9.060;2022-08-18T18:09:01;15.88;;;14.23;;
55362;SDS011;41244;49.242;9.060;2022-08-18T18:11:55;18.95;;;16.77;;
55362;SDS011;41244;49.242;9.060;2022-08-18T18:17:01;17.58;;;15.88;;
55362;SDS011;41244;49.242;9.060;2022-08-18T18:19:43;15.32;;;13.93;;
55362;SDS011;41244;49.242;9.060;2022-08-18T18:24:51;16.30;;;14.63;;
55362;SDS011;41244;49.242;9.060;2022-08-18T18:27:31;16.67;;;15.18;;
55362;SDS011;41244;49.242;9.060;2022-08-18T18:30:04;16.10;;;14.70;;
55362;SDS011;41244;49.242;9.060;2022-08-18T18:40:53;15.35;;;13.98;;
55362;SDS011;41244;49.242;9.060;2022-08-18T18:43:45;15.45;;;13.95;;
55362;SDS011;41244;49.242;9.060;2022-08-18T18:46:29;16.60;;;15.02;;
55362;SDS011;41244;49.242;9.060;2022-08-18T18:49:26;16.08;;;14.57;;
55362;SDS011;41244;49.242;9.060;2022-08-18T18:55:47;16.88;;;15.38;;
55362;SDS011;41244;49.242;9.060;2022-08-18T18:58:57;15.38;;;13.50;;
55362;SDS011;41244;49.242;9.060;2022-08-18T19:01:30;15.20;;;13.32;;
55362;SDS011;41244;49.242;9.060;2022-08-18T19:04:06;15.90;;;14.60;;
55362;SDS011;41244;49.242;9.060;2022-08-18T19:09:49;15.52;;;14.23;;